GLD1974 TNCB-TNCA
Flight info
| Callsign | GLD1974 |
|---|---|
| Flight time | 0h 29m |
| Altitude | 23000 |
| Route | ARUB1R ELUMO DCT DAVLA |
| Aircraft | A319/M-SDE3FGHIRWY/LB1 |
Departure
| Time | 2026-05-05 16:49 |
|---|---|
| Airport | Flamingo International Airport (TNCB) |
Arrival
| Time | 2026-05-05 17:18 |
|---|---|
| Airport | Queen Beatrix International Airport (TNCA) |
| Time | Latitude | Longitude | Altitude | Speed | Heading |
|---|---|---|---|---|---|
| 2026-05-05 16:38 | 12.13261 | -68.27620 | 24 ft | 0 kts | 188° |
| 2026-05-05 16:47 | 12.13236 | -68.27633 | 24 ft | 11 kts | 215° |
| 2026-05-05 16:47 | 12.13204 | -68.27710 | 23 ft | 13 kts | 271° |
| 2026-05-05 16:47 | 12.13155 | -68.27777 | 23 ft | 15 kts | 183° |
| 2026-05-05 16:48 | 12.13111 | -68.27728 | 23 ft | 0 kts | 92° |
| 2026-05-05 16:48 | 12.13100 | -68.27356 | 22 ft | 112 kts | 91° |
| 2026-05-05 16:49 | 12.13069 | -68.26339 | 547 ft | 156 kts | 94° |
| 2026-05-05 16:49 | 12.13034 | -68.25211 | 1644 ft | 158 kts | 94° |
| 2026-05-05 16:49 | 12.12997 | -68.24067 | 2599 ft | 169 kts | 94° |
| 2026-05-05 16:49 | 12.12954 | -68.22784 | 3302 ft | 193 kts | 95° |
| 2026-05-05 16:50 | 12.12903 | -68.21322 | 4050 ft | 218 kts | 95° |
| 2026-05-05 16:50 | 12.12848 | -68.19681 | 4876 ft | 244 kts | 94° |
| 2026-05-05 16:50 | 12.12792 | -68.17889 | 5897 ft | 256 kts | 94° |
| 2026-05-05 16:50 | 12.12737 | -68.16040 | 7027 ft | 263 kts | 94° |
| 2026-05-05 16:51 | 12.12395 | -68.14189 | 8102 ft | 269 kts | 112° |
| 2026-05-05 16:51 | 12.11401 | -68.12569 | 9291 ft | 272 kts | 129° |
| 2026-05-05 16:51 | 12.09909 | -68.11344 | 10301 ft | 285 kts | 150° |
| 2026-05-05 16:51 | 12.07880 | -68.10882 | 10813 ft | 319 kts | 179° |
| 2026-05-05 16:52 | 12.05699 | -68.11556 | 11598 ft | 338 kts | 203° |
| 2026-05-05 16:52 | 12.03615 | -68.12725 | 12518 ft | 345 kts | 207° |
| 2026-05-05 16:52 | 12.01558 | -68.14032 | 13428 ft | 351 kts | 209° |
| 2026-05-05 16:52 | 11.99488 | -68.15394 | 14253 ft | 356 kts | 210° |
| 2026-05-05 16:53 | 11.97393 | -68.16776 | 15048 ft | 362 kts | 212° |
| 2026-05-05 16:53 | 11.95524 | -68.18546 | 15796 ft | 373 kts | 228° |
| 2026-05-05 16:53 | 11.94162 | -68.20826 | 16579 ft | 381 kts | 245° |
| 2026-05-05 16:53 | 11.93470 | -68.23443 | 17441 ft | 386 kts | 262° |
| 2026-05-05 16:54 | 11.93547 | -68.26196 | 18217 ft | 391 kts | 279° |
| 2026-05-05 16:54 | 11.94009 | -68.28956 | 18874 ft | 397 kts | 281° |
| 2026-05-05 16:54 | 11.94482 | -68.31734 | 19682 ft | 397 kts | 281° |
| 2026-05-05 16:54 | 11.94953 | -68.34507 | 20558 ft | 396 kts | 281° |
| 2026-05-05 16:55 | 11.95420 | -68.37276 | 21421 ft | 395 kts | 281° |
| 2026-05-05 16:55 | 11.95874 | -68.40013 | 22246 ft | 395 kts | 281° |
| 2026-05-05 16:55 | 11.96329 | -68.42781 | 22786 ft | 395 kts | 282° |
| 2026-05-05 16:55 | 11.96782 | -68.45534 | 22961 ft | 393 kts | 282° |
| 2026-05-05 16:56 | 11.97251 | -68.48360 | 23008 ft | 413 kts | 283° |
| 2026-05-05 16:56 | 11.97748 | -68.51314 | 23007 ft | 431 kts | 282° |
| 2026-05-05 16:56 | 11.98263 | -68.54384 | 23005 ft | 446 kts | 282° |
| 2026-05-05 16:56 | 11.98788 | -68.57551 | 23005 ft | 458 kts | 281° |
| 2026-05-05 16:57 | 11.99322 | -68.60799 | 23002 ft | 467 kts | 281° |
| 2026-05-05 16:57 | 11.99859 | -68.64089 | 23002 ft | 470 kts | 281° |
| 2026-05-05 16:57 | 12.00400 | -68.67388 | 23005 ft | 471 kts | 282° |
| 2026-05-05 16:57 | 12.00943 | -68.70688 | 23007 ft | 469 kts | 282° |
| 2026-05-05 16:58 | 12.01484 | -68.73983 | 23009 ft | 471 kts | 282° |
| 2026-05-05 16:58 | 12.02025 | -68.77278 | 23011 ft | 472 kts | 281° |
| 2026-05-05 16:58 | 12.02568 | -68.80588 | 23016 ft | 472 kts | 281° |
| 2026-05-05 16:58 | 12.03110 | -68.83901 | 23017 ft | 471 kts | 281° |
| 2026-05-05 16:59 | 12.03653 | -68.87202 | 23016 ft | 471 kts | 282° |
| 2026-05-05 16:59 | 12.04196 | -68.90493 | 23018 ft | 470 kts | 281° |
| 2026-05-05 16:59 | 12.04740 | -68.93786 | 23015 ft | 470 kts | 281° |
| 2026-05-05 16:59 | 12.05283 | -68.97085 | 23011 ft | 471 kts | 281° |
| 2026-05-05 17:00 | 12.05858 | -69.00375 | 23002 ft | 470 kts | 285° |
| 2026-05-05 17:00 | 12.06774 | -69.03568 | 23008 ft | 468 kts | 289° |
| 2026-05-05 17:00 | 12.07777 | -69.06738 | 23009 ft | 468 kts | 290° |
| 2026-05-05 17:00 | 12.08771 | -69.09906 | 23023 ft | 468 kts | 290° |
| 2026-05-05 17:01 | 12.09758 | -69.13069 | 23031 ft | 468 kts | 289° |
| 2026-05-05 17:01 | 12.10731 | -69.16194 | 23013 ft | 468 kts | 289° |
| 2026-05-05 17:01 | 12.11716 | -69.19363 | 23009 ft | 467 kts | 290° |
| 2026-05-05 17:01 | 12.12713 | -69.22571 | 22997 ft | 468 kts | 289° |
| 2026-05-05 17:02 | 12.13687 | -69.25702 | 22988 ft | 468 kts | 290° |
| 2026-05-05 17:02 | 12.14678 | -69.28875 | 22976 ft | 468 kts | 290° |
| 2026-05-05 17:02 | 12.15672 | -69.32052 | 22978 ft | 468 kts | 289° |
| 2026-05-05 17:02 | 12.16664 | -69.35220 | 22974 ft | 468 kts | 290° |
| 2026-05-05 17:03 | 12.17654 | -69.38386 | 22978 ft | 468 kts | 290° |
| 2026-05-05 17:03 | 12.18646 | -69.41558 | 22782 ft | 468 kts | 290° |
| 2026-05-05 17:03 | 12.19636 | -69.44729 | 22525 ft | 469 kts | 289° |
| 2026-05-05 17:03 | 12.20618 | -69.47885 | 21706 ft | 461 kts | 289° |
| 2026-05-05 17:04 | 12.21586 | -69.51001 | 20498 ft | 458 kts | 289° |
| 2026-05-05 17:04 | 12.22550 | -69.54104 | 19339 ft | 457 kts | 288° |
| 2026-05-05 17:04 | 12.23510 | -69.57195 | 18233 ft | 456 kts | 288° |
| 2026-05-05 17:04 | 12.24475 | -69.60300 | 17008 ft | 457 kts | 288° |
| 2026-05-05 17:05 | 12.25437 | -69.63395 | 15945 ft | 456 kts | 288° |
| 2026-05-05 17:05 | 12.26392 | -69.66464 | 15081 ft | 450 kts | 288° |
| 2026-05-05 17:05 | 12.27351 | -69.69500 | 14180 ft | 448 kts | 289° |
| 2026-05-05 17:05 | 12.28326 | -69.72498 | 13366 ft | 442 kts | 289° |
| 2026-05-05 17:06 | 12.29306 | -69.75468 | 12430 ft | 438 kts | 289° |
| 2026-05-05 17:06 | 12.30267 | -69.78370 | 12102 ft | 419 kts | 289° |
| 2026-05-05 17:06 | 12.31169 | -69.81098 | 11946 ft | 390 kts | 289° |
| 2026-05-05 17:06 | 12.32000 | -69.83624 | 11724 ft | 359 kts | 289° |
| 2026-05-05 17:07 | 12.32759 | -69.85953 | 11532 ft | 334 kts | 288° |
| 2026-05-05 17:07 | 12.33478 | -69.88162 | 11035 ft | 323 kts | 288° |
| 2026-05-05 17:07 | 12.34182 | -69.90322 | 10463 ft | 317 kts | 288° |
| 2026-05-05 17:07 | 12.34876 | -69.92447 | 10230 ft | 312 kts | 288° |
| 2026-05-05 17:08 | 12.35528 | -69.94449 | 10168 ft | 289 kts | 288° |
| 2026-05-05 17:08 | 12.36151 | -69.96363 | 10069 ft | 280 kts | 288° |
| 2026-05-05 17:08 | 12.36775 | -69.98277 | 10014 ft | 286 kts | 287° |
| 2026-05-05 17:08 | 12.37405 | -70.00215 | 9890 ft | 287 kts | 287° |
| 2026-05-05 17:09 | 12.38037 | -70.02158 | 9352 ft | 286 kts | 287° |
| 2026-05-05 17:09 | 12.38662 | -70.04078 | 8821 ft | 282 kts | 287° |
| 2026-05-05 17:09 | 12.39276 | -70.05960 | 8345 ft | 276 kts | 288° |
| 2026-05-05 17:09 | 12.39882 | -70.07818 | 7787 ft | 274 kts | 287° |
| 2026-05-05 17:10 | 12.40479 | -70.09659 | 7275 ft | 270 kts | 288° |
| 2026-05-05 17:10 | 12.41069 | -70.11472 | 6749 ft | 267 kts | 287° |
| 2026-05-05 17:10 | 12.41656 | -70.13276 | 6160 ft | 268 kts | 287° |
| 2026-05-05 17:10 | 12.42242 | -70.15082 | 5606 ft | 266 kts | 287° |
| 2026-05-05 17:11 | 12.42820 | -70.16867 | 5050 ft | 263 kts | 286° |
| 2026-05-05 17:11 | 12.43397 | -70.18648 | 4478 ft | 264 kts | 285° |
| 2026-05-05 17:11 | 12.43972 | -70.20425 | 3941 ft | 262 kts | 286° |
| 2026-05-05 17:11 | 12.44735 | -70.22115 | 3361 ft | 261 kts | 309° |
| 2026-05-05 17:12 | 12.46088 | -70.23222 | 3136 ft | 240 kts | 340° |
| 2026-05-05 17:12 | 12.47634 | -70.23591 | 2999 ft | 222 kts | 6° |
| 2026-05-05 17:12 | 12.49127 | -70.23342 | 2890 ft | 216 kts | 21° |
| 2026-05-05 17:12 | 12.50584 | -70.22980 | 2783 ft | 215 kts | 21° |
| 2026-05-05 17:13 | 12.51960 | -70.22466 | 2675 ft | 206 kts | 38° |
| 2026-05-05 17:13 | 12.53042 | -70.21565 | 2586 ft | 197 kts | 56° |
| 2026-05-05 17:13 | 12.53755 | -70.20409 | 2498 ft | 190 kts | 73° |
| 2026-05-05 17:13 | 12.54075 | -70.19124 | 2484 ft | 186 kts | 88° |
| 2026-05-05 17:14 | 12.54010 | -70.17812 | 2482 ft | 184 kts | 102° |
| 2026-05-05 17:14 | 12.53710 | -70.16546 | 2471 ft | 180 kts | 104° |
| 2026-05-05 17:14 | 12.53426 | -70.15345 | 2341 ft | 172 kts | 103° |
| 2026-05-05 17:14 | 12.53148 | -70.14173 | 2191 ft | 166 kts | 103° |
| 2026-05-05 17:15 | 12.52883 | -70.13056 | 1958 ft | 155 kts | 106° |
| 2026-05-05 17:15 | 12.52644 | -70.12048 | 1779 ft | 137 kts | 106° |
| 2026-05-05 17:15 | 12.52429 | -70.11140 | 1614 ft | 126 kts | 107° |
| 2026-05-05 17:15 | 12.52231 | -70.10310 | 1449 ft | 116 kts | 107° |
| 2026-05-05 17:16 | 12.52043 | -70.09522 | 1304 ft | 112 kts | 105° |
| 2026-05-05 17:16 | 12.51860 | -70.08755 | 1160 ft | 110 kts | 105° |
| 2026-05-05 17:16 | 12.51679 | -70.07995 | 1021 ft | 109 kts | 104° |
| 2026-05-05 17:16 | 12.51499 | -70.07240 | 889 ft | 109 kts | 102° |
| 2026-05-05 17:17 | 12.51319 | -70.06481 | 761 ft | 110 kts | 101° |
| 2026-05-05 17:17 | 12.51136 | -70.05712 | 626 ft | 111 kts | 105° |
| 2026-05-05 17:17 | 12.50953 | -70.04945 | 485 ft | 111 kts | 105° |
| 2026-05-05 17:17 | 12.50771 | -70.04180 | 325 ft | 111 kts | 104° |
| 2026-05-05 17:18 | 12.50597 | -70.03422 | 145 ft | 108 kts | 105° |
| 2026-05-05 17:18 | 12.50414 | -70.02675 | 33 ft | 107 kts | 104° |
| 2026-05-05 17:18 | 12.50261 | -70.02038 | 26 ft | 65 kts | 104° |
| 2026-05-05 17:18 | 12.50193 | -70.01757 | 30 ft | 32 kts | 103° |
| 2026-05-05 17:19 | 12.50152 | -70.01585 | 35 ft | 13 kts | 104° |
| 2026-05-05 17:19 | 12.50131 | -70.01490 | 37 ft | 14 kts | 102° |
| 2026-05-05 17:19 | 12.50164 | -70.01404 | 39 ft | 13 kts | 29° |
| 2026-05-05 17:19 | 12.50256 | -70.01380 | 39 ft | 11 kts | 5° |
| 2026-05-05 17:20 | 12.50321 | -70.01401 | 36 ft | 11 kts | 19° |
| 2026-05-05 17:20 | 12.50353 | -70.01330 | 39 ft | 12 kts | 80° |
| 2026-05-05 17:20 | 12.50349 | -70.01271 | 40 ft | 13 kts | 104° |
| 2026-05-05 17:20 | 12.50373 | -70.01223 | 41 ft | 10 kts | 17° |
| 2026-05-05 17:21 | 12.50402 | -70.01216 | 38 ft | 0 kts | 14° |